createdAt,value
2023-02-12T00:01:25.695Z,79.73
2023-02-12T00:02:57.276Z,79.89
2023-02-12T00:04:28.906Z,79.61
2023-02-12T00:06:02.324Z,79.81
2023-02-12T00:07:33.947Z,80.10
2023-02-12T00:09:05.890Z,79.79
2023-02-12T00:10:41.621Z,80.17
2023-02-12T00:12:13.155Z,79.89
2023-02-12T00:13:45.290Z,79.84
2023-02-12T00:15:16.995Z,79.55
2023-02-12T00:16:48.635Z,79.09
2023-02-12T00:18:20.213Z,79.73
2023-02-12T00:19:51.840Z,79.75
2023-02-12T00:21:24.465Z,79.93
2023-02-12T00:22:56.067Z,79.93
2023-02-12T00:24:27.950Z,79.87
2023-02-12T00:25:59.724Z,79.82
2023-02-12T00:27:35.480Z,79.89
2023-02-12T00:29:07.119Z,79.73
2023-02-12T00:30:38.937Z,79.58
2023-02-12T00:32:10.658Z,79.28
2023-02-12T00:33:42.841Z,79.22
2023-02-12T00:35:14.595Z,79.22
2023-02-12T00:36:46.207Z,79.07
2023-02-12T00:38:19.251Z,78.97
2023-02-12T00:39:50.947Z,79.08
2023-02-12T00:41:23.299Z,79.11
2023-02-12T00:42:54.905Z,79.20
2023-02-12T00:44:26.543Z,79.73
2023-02-12T00:45:58.706Z,79.44
2023-02-12T00:47:31.787Z,79.76
2023-02-12T00:49:03.518Z,79.55
2023-02-12T00:50:35.113Z,79.52
2023-02-12T00:52:06.733Z,79.42
2023-02-12T00:53:38.388Z,80.01
2023-02-12T00:55:10.754Z,79.95
2023-02-12T00:56:42.359Z,79.96
2023-02-12T00:58:14.207Z,80.08
2023-02-12T00:59:45.859Z,79.79
2023-02-12T01:01:18.370Z,79.67
2023-02-12T01:02:50.204Z,79.83
2023-02-12T01:04:22.760Z,79.79
2023-02-12T01:05:54.934Z,79.70
2023-02-12T01:07:26.704Z,79.75
2023-02-12T01:08:58.308Z,79.92
2023-02-12T01:10:30.045Z,79.98
2023-02-12T01:12:01.729Z,80.30
2023-02-12T01:13:35.019Z,80.24
2023-02-12T01:15:07.108Z,80.60
2023-02-12T01:16:39.143Z,80.82
2023-02-12T01:18:11.511Z,80.44
2023-02-12T01:19:43.087Z,80.22
2023-02-12T01:21:20.976Z,80.69
2023-02-12T01:22:52.752Z,81.03
2023-02-12T01:24:24.342Z,80.69
2023-02-12T01:25:56.148Z,80.73
2023-02-12T01:27:27.943Z,81.06
2023-02-12T01:29:03.969Z,81.04
2023-02-12T01:30:35.611Z,81.26
2023-02-12T01:32:07.502Z,81.39
2023-02-12T01:33:40.032Z,81.26
2023-02-12T01:35:11.827Z,81.14
2023-02-12T01:36:45.718Z,81.27
2023-02-12T01:38:17.415Z,80.51
2023-02-12T01:39:50.239Z,80.10
2023-02-12T01:41:25.089Z,80.09
2023-02-12T01:43:00.930Z,80.08
2023-02-12T01:44:37.540Z,80.56
2023-02-12T01:46:13.864Z,80.40
2023-02-12T01:47:45.661Z,80.29
2023-02-12T01:49:41.627Z,79.98
2023-02-12T01:51:19.446Z,80.07
2023-02-12T01:52:56.613Z,80.26
2023-02-12T01:54:29.770Z,80.17
2023-02-12T01:56:03.361Z,80.43
2023-02-12T01:57:43.669Z,79.86
2023-02-12T01:59:16.918Z,80.46
2023-02-12T02:00:48.562Z,80.42
2023-02-12T02:02:20.446Z,80.81
2023-02-12T02:03:59.699Z,80.71
2023-02-12T02:05:35.824Z,80.35
2023-02-12T02:07:08.641Z,80.17
2023-02-12T02:08:42.157Z,80.17
2023-02-12T02:10:15.272Z,80.41
2023-02-12T02:12:05.460Z,80.73
2023-02-12T02:13:55.851Z,80.96
2023-02-12T02:15:31.037Z,80.68
2023-02-12T02:17:33.504Z,80.57
2023-02-12T02:19:44.174Z,80.88
2023-02-12T02:21:49.920Z,80.58
2023-02-12T02:23:36.486Z,80.67
2023-02-12T02:25:40.140Z,80.87
2023-02-12T02:27:19.515Z,80.90
2023-02-12T02:28:57.080Z,80.78
2023-02-12T02:30:28.672Z,80.57
2023-02-12T02:32:14.874Z,80.80
2023-02-12T02:34:07.536Z,80.53
2023-02-12T02:35:42.163Z,80.23
2023-02-12T02:37:48.750Z,80.32
2023-02-12T02:39:37.079Z,81.08
2023-02-12T02:41:16.371Z,80.83
2023-02-12T02:43:04.222Z,80.97
2023-02-12T02:44:46.783Z,81.11
2023-02-12T02:46:18.386Z,81.22
2023-02-12T02:48:00.122Z,81.10
2023-02-12T02:49:49.837Z,81.12
2023-02-12T02:51:27.358Z,80.46
2023-02-12T02:53:09.904Z,80.93
2023-02-12T02:54:54.602Z,81.45
2023-02-12T02:56:27.768Z,81.31
2023-02-12T02:58:09.070Z,81.42
2023-02-12T02:59:46.442Z,81.70
2023-02-12T03:01:36.601Z,81.29
2023-02-12T03:03:16.873Z,81.74
2023-02-12T03:05:02.873Z,81.67
2023-02-12T03:06:47.174Z,81.86
2023-02-12T03:08:34.258Z,81.92
2023-02-12T03:10:12.490Z,82.05
2023-02-12T03:11:45.205Z,82.12
2023-02-12T03:13:26.389Z,81.99
2023-02-12T03:15:21.095Z,81.74
2023-02-12T03:16:55.419Z,81.68
2023-02-12T03:18:53.008Z,81.70
2023-02-12T03:20:29.113Z,81.40
2023-02-12T03:22:02.511Z,81.89
2023-02-12T03:23:50.505Z,81.86
2023-02-12T03:25:34.179Z,82.14
2023-02-12T03:27:19.325Z,81.92
2023-02-12T03:28:51.161Z,82.06
2023-02-12T03:30:31.600Z,82.06
2023-02-12T03:32:05.988Z,81.98
2023-02-12T03:33:52.723Z,82.03
2023-02-12T03:35:31.774Z,81.91
2023-02-12T03:37:32.109Z,82.02
2023-02-12T03:39:28.438Z,81.66
2023-02-12T03:41:14.459Z,81.71
2023-02-12T03:43:02.213Z,82.01
2023-02-12T03:44:48.791Z,81.77
2023-02-12T03:46:30.192Z,81.74
2023-02-12T03:48:25.702Z,80.92
2023-02-12T03:50:06.416Z,80.90
2023-02-12T03:51:44.131Z,81.47
2023-02-12T03:53:15.767Z,81.52
2023-02-12T03:54:47.817Z,81.57
2023-02-12T03:56:25.597Z,81.81
2023-02-12T03:58:01.432Z,81.72
2023-02-12T03:59:37.754Z,82.14
2023-02-12T04:01:10.178Z,81.87
2023-02-12T04:02:43.207Z,82.32
2023-02-12T04:04:15.804Z,81.96
2023-02-12T04:05:47.428Z,81.87
2023-02-12T04:07:19.072Z,82.13
2023-02-12T04:08:50.766Z,82.12
2023-02-12T04:11:05.731Z,81.85
2023-02-12T04:12:41.168Z,82.02
2023-02-12T04:14:27.184Z,81.43
2023-02-12T04:16:25.417Z,81.48
2023-02-12T04:18:07.544Z,81.65
2023-02-12T04:19:44.869Z,81.56
2023-02-12T04:21:41.156Z,81.72
2023-02-12T04:23:12.678Z,82.08
2023-02-12T04:25:22.356Z,81.65
2023-02-12T04:27:08.967Z,82.07
2023-02-12T04:28:46.092Z,82.36
2023-02-12T04:30:44.019Z,82.32
2023-02-12T04:32:24.361Z,81.23
2023-02-12T04:34:14.415Z,81.73
2023-02-12T04:36:00.587Z,82.08
2023-02-12T04:37:41.981Z,81.98
2023-02-12T04:39:19.713Z,81.61
2023-02-12T04:40:52.155Z,82.51
2023-02-12T04:42:23.758Z,82.17
2023-02-12T04:43:55.272Z,82.06
2023-02-12T04:45:30.425Z,82.04
2023-02-12T04:47:01.988Z,81.82
2023-02-12T04:48:34.680Z,81.52
2023-02-12T04:50:06.965Z,81.50
2023-02-12T04:51:38.638Z,81.59
2023-02-12T04:53:10.930Z,81.60
2023-02-12T04:54:42.632Z,81.73
2023-02-12T04:56:14.693Z,81.83
2023-02-12T04:57:46.335Z,81.94
2023-02-12T04:59:18.050Z,81.94
2023-02-12T05:00:49.626Z,82.18
2023-02-12T05:02:21.295Z,82.15
2023-02-12T05:03:53.113Z,82.29
2023-02-12T05:05:25.810Z,81.89
2023-02-12T05:06:57.413Z,81.77
2023-02-12T05:08:29.023Z,81.58
2023-02-12T05:10:00.624Z,81.86
2023-02-12T05:11:32.319Z,82.12
2023-02-12T05:13:03.923Z,81.99
2023-02-12T05:14:35.524Z,81.33
2023-02-12T05:16:08.260Z,81.22
2023-02-12T05:17:39.880Z,81.60
2023-02-12T05:19:12.247Z,81.84
2023-02-12T05:20:43.864Z,82.23
2023-02-12T05:22:15.509Z,82.30
2023-02-12T05:23:47.119Z,82.51
2023-02-12T05:25:18.770Z,82.55
2023-02-12T05:26:50.644Z,82.64
2023-02-12T05:28:22.315Z,82.79
2023-02-12T05:29:53.989Z,83.01
2023-02-12T05:31:25.809Z,82.93
2023-02-12T05:32:57.486Z,82.78
2023-02-12T05:34:29.434Z,82.97
2023-02-12T05:36:09.586Z,82.81
2023-02-12T05:37:41.253Z,83.01
2023-02-12T05:39:12.867Z,83.23
2023-02-12T05:40:44.620Z,83.07
2023-02-12T05:42:16.273Z,82.90
2023-02-12T05:43:49.756Z,82.59
2023-02-12T05:45:21.426Z,82.22
2023-02-12T05:46:52.941Z,82.49
2023-02-12T05:48:24.718Z,82.43
2023-02-12T05:49:56.269Z,82.34
2023-02-12T05:51:28.579Z,82.28
2023-02-12T05:53:01.145Z,82.66
2023-02-12T05:54:32.714Z,82.65
2023-02-12T05:56:15.960Z,82.71
2023-02-12T05:57:47.593Z,82.76
2023-02-12T05:59:22.510Z,82.78
2023-02-12T06:00:54.014Z,82.62
2023-02-12T06:02:25.531Z,82.64
2023-02-12T06:03:59.263Z,82.83
2023-02-12T06:05:31.062Z,82.92
2023-02-12T06:07:02.586Z,82.81
2023-02-12T06:08:34.820Z,82.74
2023-02-12T06:10:07.156Z,83.08
2023-02-12T06:11:39.456Z,82.90
2023-02-12T06:13:11.570Z,83.00
2023-02-12T06:14:43.233Z,82.89
2023-02-12T06:16:23.587Z,83.43
2023-02-12T06:17:55.146Z,83.39
2023-02-12T06:19:26.939Z,83.76
2023-02-12T06:20:58.562Z,83.29
2023-02-12T06:22:30.160Z,83.45
2023-02-12T06:24:01.770Z,83.84
2023-02-12T06:25:33.302Z,83.67
2023-02-12T06:27:04.831Z,83.65
2023-02-12T06:28:36.641Z,83.58
2023-02-12T06:30:08.684Z,83.79
2023-02-12T06:31:40.575Z,84.18
2023-02-12T06:33:12.262Z,83.89
2023-02-12T06:34:43.892Z,83.89
2023-02-12T06:36:15.653Z,83.33
2023-02-12T06:37:47.212Z,83.73
2023-02-12T06:39:19.064Z,83.35
2023-02-12T06:40:50.651Z,83.14
2023-02-12T06:42:22.213Z,83.07
2023-02-12T06:43:53.858Z,83.27
2023-02-12T06:45:25.527Z,82.96
2023-02-12T06:46:58.699Z,83.23
2023-02-12T06:48:31.099Z,83.25
2023-02-12T06:50:03.055Z,83.19
2023-02-12T06:51:38.224Z,83.07
2023-02-12T06:53:09.852Z,83.05
2023-02-12T06:54:41.548Z,83.12
2023-02-12T06:56:13.801Z,83.00
2023-02-12T06:57:45.385Z,82.44
2023-02-12T06:59:17.561Z,82.52
2023-02-12T07:00:49.152Z,81.84
2023-02-12T07:02:21.015Z,82.00
2023-02-12T07:03:58.847Z,81.53
2023-02-12T07:05:30.505Z,82.41
2023-02-12T07:07:02.047Z,82.18
2023-02-12T07:08:33.638Z,81.44
2023-02-12T07:10:05.657Z,81.62
2023-02-12T07:11:38.447Z,81.87
2023-02-12T07:13:10.264Z,81.55
2023-02-12T07:14:41.893Z,81.31
2023-02-12T07:16:15.782Z,81.31
2023-02-12T07:17:47.436Z,81.10
2023-02-12T07:19:19.223Z,81.45
2023-02-12T07:20:50.835Z,81.94
2023-02-12T07:22:22.889Z,82.05
2023-02-12T07:23:54.509Z,82.34
2023-02-12T07:25:26.086Z,81.54
2023-02-12T07:26:57.771Z,81.30
2023-02-12T07:28:33.491Z,80.87
2023-02-12T07:30:06.569Z,81.53
2023-02-12T07:31:38.258Z,81.72
2023-02-12T07:33:09.803Z,81.60
2023-02-12T07:34:41.350Z,81.34
2023-02-12T07:36:15.990Z,81.43
2023-02-12T07:37:47.598Z,81.17
2023-02-12T07:39:19.182Z,80.76
2023-02-12T07:40:50.803Z,80.59
2023-02-12T07:42:22.396Z,80.49
2023-02-12T07:43:57.430Z,80.43
2023-02-12T07:45:28.997Z,80.33
2023-02-12T07:47:00.587Z,80.49
2023-02-12T07:48:32.190Z,80.14
2023-02-12T07:50:03.998Z,79.68
2023-02-12T07:51:36.727Z,79.77
2023-02-12T07:53:08.296Z,79.55
2023-02-12T07:54:39.907Z,79.40
2023-02-12T07:56:29.553Z,79.18
2023-02-12T07:58:01.232Z,78.77
2023-02-12T07:59:32.936Z,79.02
2023-02-12T08:01:25.353Z,78.43
2023-02-12T08:02:56.897Z,78.57
2023-02-12T08:04:28.619Z,78.46
2023-02-12T08:06:00.267Z,77.88
2023-02-12T08:07:32.101Z,77.97
2023-02-12T08:09:07.096Z,77.41
2023-02-12T08:10:38.735Z,77.32
2023-02-12T08:12:10.361Z,77.55
2023-02-12T08:13:42.234Z,77.44
2023-02-12T08:15:13.865Z,77.40
2023-02-12T08:16:47.200Z,77.43
2023-02-12T08:18:19.164Z,77.75
2023-02-12T08:19:50.991Z,77.09
2023-02-12T08:21:25.195Z,77.19
2023-02-12T08:22:58.224Z,77.20
2023-02-12T08:24:30.357Z,76.65
2023-02-12T08:26:35.070Z,75.96
2023-02-12T08:28:06.706Z,76.41
2023-02-12T08:29:38.988Z,76.62
2023-02-12T08:31:17.501Z,77.04
2023-02-12T08:32:49.842Z,76.93
2023-02-12T08:34:24.346Z,76.88
2023-02-12T08:36:07.680Z,77.04
2023-02-12T08:37:39.425Z,76.27
2023-02-12T08:39:11.879Z,76.46
2023-02-12T08:40:43.485Z,76.52
2023-02-12T08:42:15.260Z,76.62
2023-02-12T08:43:46.805Z,76.90
2023-02-12T08:45:18.415Z,76.33
2023-02-12T08:46:51.975Z,76.76
2023-02-12T08:48:23.860Z,76.65
2023-02-12T08:49:55.482Z,76.67
2023-02-12T08:51:30.455Z,76.19
2023-02-12T08:53:02.021Z,76.34
2023-02-12T08:54:33.624Z,76.18
2023-02-12T08:56:06.424Z,75.53
2023-02-12T08:57:38.063Z,75.45
2023-02-12T08:59:11.361Z,75.51
2023-02-12T09:00:43.004Z,75.61
2023-02-12T09:02:14.751Z,75.16
2023-02-12T09:03:47.392Z,75.06
2023-02-12T09:05:19.066Z,75.20
2023-02-12T09:06:51.600Z,75.25
2023-02-12T09:08:23.235Z,75.33
2023-02-12T09:09:54.827Z,75.68
2023-02-12T09:11:31.522Z,74.69
2023-02-12T09:13:03.116Z,74.85
2023-02-12T09:14:34.778Z,74.81
2023-02-12T09:16:07.217Z,74.48
2023-02-12T09:17:41.107Z,74.67
2023-02-12T09:19:14.642Z,74.34
2023-02-12T09:20:46.310Z,73.83
2023-02-12T09:22:17.950Z,73.85
2023-02-12T09:23:50.154Z,74.03
2023-02-12T09:25:21.880Z,74.27
2023-02-12T09:26:53.506Z,73.93
2023-02-12T09:28:25.408Z,73.61
2023-02-12T09:29:57.065Z,73.77
2023-02-12T09:31:31.298Z,74.09
2023-02-12T09:33:03.563Z,74.57
2023-02-12T09:34:36.414Z,75.04
2023-02-12T09:36:11.930Z,75.01
2023-02-12T09:37:44.902Z,74.46
2023-02-12T09:39:16.509Z,74.50
2023-02-12T09:41:05.335Z,74.06
2023-02-12T09:42:58.106Z,74.37
2023-02-12T09:44:40.166Z,73.21
2023-02-12T09:46:27.839Z,74.05
2023-02-12T09:48:03.704Z,73.68
2023-02-12T09:50:03.302Z,74.05
2023-02-12T09:51:36.500Z,73.99
2023-02-12T09:53:14.928Z,74.22
2023-02-12T09:54:48.237Z,74.12
2023-02-12T09:56:22.957Z,73.27
2023-02-12T09:57:55.093Z,73.44
2023-02-12T09:59:41.341Z,73.20
2023-02-12T10:01:19.106Z,73.13
2023-02-12T10:02:53.953Z,72.56
2023-02-12T10:04:28.319Z,72.37
2023-02-12T10:06:11.526Z,71.89
2023-02-12T10:07:53.946Z,71.40
2023-02-12T10:09:47.951Z,72.06
2023-02-12T10:11:33.700Z,71.34
2023-02-12T10:13:12.673Z,71.51
2023-02-12T10:14:48.799Z,71.76
2023-02-12T10:16:42.243Z,71.27
2023-02-12T10:18:47.422Z,71.40
2023-02-12T10:20:31.756Z,71.88
2023-02-12T10:22:15.232Z,71.19
2023-02-12T10:23:59.010Z,71.08
2023-02-12T10:25:57.201Z,71.22
2023-02-12T10:27:39.919Z,70.78
2023-02-12T10:29:17.462Z,71.04
2023-02-12T10:30:56.702Z,70.14
2023-02-12T10:32:34.070Z,69.62
2023-02-12T10:34:20.316Z,69.39
2023-02-12T10:35:58.952Z,69.56
2023-02-12T10:37:45.603Z,69.82
2023-02-12T10:39:24.085Z,70.10
2023-02-12T10:40:58.007Z,69.37
2023-02-12T10:42:32.400Z,69.53
2023-02-12T10:44:04.213Z,69.25
2023-02-12T10:45:39.959Z,69.25
2023-02-12T10:47:22.921Z,68.59
2023-02-12T10:49:00.228Z,69.76
2023-02-12T10:51:01.317Z,68.93
2023-02-12T10:52:53.343Z,69.19
2023-02-12T10:54:34.092Z,68.76
2023-02-12T10:56:08.669Z,68.30
2023-02-12T10:57:40.608Z,68.09
2023-02-12T10:59:22.971Z,67.46
2023-02-12T11:00:59.564Z,68.84
2023-02-12T11:02:34.303Z,68.99
2023-02-12T11:04:29.889Z,69.99
2023-02-12T11:06:21.126Z,69.14
2023-02-12T11:07:52.761Z,69.43
2023-02-12T11:09:37.085Z,69.43
2023-02-12T11:11:15.937Z,70.04
2023-02-12T11:12:49.221Z,69.94
2023-02-12T11:14:21.344Z,69.03
2023-02-12T11:15:53.583Z,68.67
2023-02-12T11:17:36.948Z,68.32
2023-02-12T11:19:23.387Z,67.38
2023-02-12T11:20:58.828Z,66.46
2023-02-12T11:22:31.028Z,66.62
2023-02-12T11:24:34.743Z,66.65
2023-02-12T11:26:18.203Z,67.26
2023-02-12T11:28:19.415Z,67.71
2023-02-12T11:30:17.363Z,67.54
2023-02-12T11:32:05.219Z,67.25
2023-02-12T11:33:37.988Z,66.99
2023-02-12T11:35:24.087Z,66.88
2023-02-12T11:36:57.290Z,66.55
2023-02-12T11:38:47.757Z,65.27
2023-02-12T11:40:23.930Z,65.85
2023-02-12T11:42:00.816Z,65.76
2023-02-12T11:43:37.323Z,65.51
2023-02-12T11:45:17.848Z,65.12
2023-02-12T11:46:54.406Z,65.36
2023-02-12T11:48:31.894Z,64.79
2023-02-12T11:50:22.113Z,65.19
2023-02-12T11:51:54.720Z,64.29
2023-02-12T11:53:36.014Z,63.89
2023-02-12T11:55:23.400Z,64.17
2023-02-12T11:56:58.252Z,64.42
2023-02-12T11:58:30.110Z,63.65
2023-02-12T12:00:12.377Z,63.95
2023-02-12T12:01:44.381Z,64.16
2023-02-12T12:03:34.523Z,64.15
2023-02-12T12:05:19.926Z,63.63
2023-02-12T12:07:11.964Z,63.43
2023-02-12T12:08:51.629Z,63.76
2023-02-12T12:10:34.309Z,63.16
2023-02-12T12:12:38.368Z,63.20
2023-02-12T12:14:22.400Z,63.55
2023-02-12T12:16:46.402Z,65.09
2023-02-12T12:19:03.698Z,65.06
2023-02-12T12:20:42.712Z,65.68
2023-02-12T12:22:23.469Z,66.51
2023-02-12T12:24:35.077Z,65.97
2023-02-12T12:26:25.231Z,65.44
2023-02-12T12:28:03.968Z,64.78
2023-02-12T12:29:53.001Z,64.90
2023-02-12T12:31:27.650Z,63.66
2023-02-12T12:33:03.919Z,64.42
2023-02-12T12:34:35.551Z,64.50
2023-02-12T12:36:13.451Z,64.39
2023-02-12T12:38:02.740Z,65.22
2023-02-12T12:39:46.571Z,64.75
2023-02-12T12:41:18.479Z,64.92
2023-02-12T12:43:23.725Z,65.30
2023-02-12T12:45:16.676Z,64.73
2023-02-12T12:46:48.338Z,65.30
2023-02-12T12:48:55.607Z,65.37
2023-02-12T12:50:54.650Z,65.66
2023-02-12T12:52:29.104Z,66.31
2023-02-12T12:54:20.963Z,66.00
2023-02-12T12:56:07.979Z,66.40
2023-02-12T12:57:42.373Z,65.85
2023-02-12T12:59:16.493Z,66.17
2023-02-12T13:00:57.246Z,66.32
2023-02-12T13:02:28.998Z,66.62
2023-02-12T13:04:31.527Z,66.50
2023-02-12T13:06:21.315Z,66.92
2023-02-12T13:07:53.035Z,66.78
2023-02-12T13:10:01.904Z,66.70
2023-02-12T13:11:42.537Z,66.73
2023-02-12T13:13:26.377Z,66.61
2023-02-12T13:15:35.375Z,67.38
2023-02-12T13:17:21.936Z,66.70
2023-02-12T13:19:24.550Z,67.53
2023-02-12T13:21:22.911Z,67.71
2023-02-12T13:23:19.816Z,67.77
2023-02-12T13:24:59.638Z,67.96
2023-02-12T13:26:54.453Z,67.17
2023-02-12T13:28:37.533Z,67.71
2023-02-12T13:30:15.627Z,68.27
2023-02-12T13:31:54.482Z,69.00
2023-02-12T13:33:34.138Z,69.22
2023-02-12T13:35:07.420Z,69.19
2023-02-12T13:36:41.593Z,69.86
2023-02-12T13:38:22.543Z,69.73
2023-02-12T13:39:58.858Z,71.00
2023-02-12T13:41:31.593Z,71.09
2023-02-12T13:43:30.953Z,71.58
2023-02-12T13:45:11.510Z,71.44
2023-02-12T13:47:06.992Z,71.58
2023-02-12T13:48:44.647Z,71.52
2023-02-12T13:50:37.542Z,71.36
2023-02-12T13:52:33.748Z,71.55
2023-02-12T13:54:11.296Z,71.81
2023-02-12T13:56:17.991Z,72.39
2023-02-12T13:58:27.959Z,72.03
2023-02-12T14:00:00.626Z,72.84
2023-02-12T14:01:49.274Z,73.08
2023-02-12T14:03:26.213Z,72.38
2023-02-12T14:05:00.061Z,72.43
2023-02-12T14:06:35.003Z,72.45
2023-02-12T14:08:07.983Z,72.70
2023-02-12T14:09:50.470Z,72.88
2023-02-12T14:11:26.086Z,72.83
2023-02-12T14:13:22.922Z,72.83
2023-02-12T14:15:06.879Z,72.53
2023-02-12T14:16:40.616Z,72.79
2023-02-12T14:18:36.026Z,73.03
2023-02-12T14:20:31.830Z,73.06
2023-02-12T14:22:32.944Z,73.08
2023-02-12T14:24:35.717Z,73.06
2023-02-12T14:26:24.348Z,72.98
2023-02-12T14:28:06.192Z,72.89
2023-02-12T14:29:37.822Z,73.42
2023-02-12T14:31:19.017Z,73.34
2023-02-12T14:32:53.476Z,73.25
2023-02-12T14:34:30.849Z,72.71
2023-02-12T14:36:40.563Z,72.83
2023-02-12T14:38:12.146Z,72.97
2023-02-12T14:39:45.320Z,72.93
2023-02-12T14:41:34.140Z,72.81
2023-02-12T14:43:24.391Z,73.30
2023-02-12T14:44:59.888Z,73.19
2023-02-12T14:46:34.563Z,73.29
2023-02-12T14:48:06.312Z,73.31
2023-02-12T14:49:47.518Z,73.52
2023-02-12T14:52:05.469Z,73.30
2023-02-12T14:53:39.395Z,73.50
2023-02-12T14:55:22.324Z,74.08
2023-02-12T14:56:55.654Z,73.70
2023-02-12T14:58:30.763Z,73.79
2023-02-12T15:00:18.279Z,74.15
2023-02-12T15:01:51.592Z,73.91
2023-02-12T15:03:32.239Z,73.57
2023-02-12T15:05:16.156Z,73.80
2023-02-12T15:07:13.047Z,73.54
2023-02-12T15:08:51.241Z,73.54
2023-02-12T15:10:28.713Z,74.07
2023-02-12T15:12:10.964Z,74.05
2023-02-12T15:14:04.380Z,74.58
2023-02-12T15:16:04.056Z,74.42
2023-02-12T15:17:40.914Z,74.43
2023-02-12T15:19:34.444Z,74.41
2023-02-12T15:21:25.969Z,75.05
2023-02-12T15:22:57.778Z,74.89
2023-02-12T15:24:29.523Z,75.17
2023-02-12T15:26:01.971Z,74.68
2023-02-12T15:27:33.628Z,75.03
2023-02-12T15:29:06.779Z,75.33
2023-02-12T15:30:42.920Z,75.02
2023-02-12T15:32:25.880Z,75.31
2023-02-12T15:34:00.144Z,75.64
2023-02-12T15:35:34.299Z,74.98
2023-02-12T15:37:08.137Z,75.02
2023-02-12T15:38:41.688Z,74.75
2023-02-12T15:40:15.872Z,74.67
2023-02-12T15:41:49.317Z,74.82
2023-02-12T15:43:20.937Z,74.98
2023-02-12T15:44:52.799Z,75.46
2023-02-12T15:46:24.887Z,74.65
2023-02-12T15:48:17.527Z,74.62
2023-02-12T15:49:49.360Z,75.23
2023-02-12T15:51:37.069Z,75.19
2023-02-12T15:53:08.852Z,75.33
2023-02-12T15:54:40.527Z,75.15
2023-02-12T15:56:18.594Z,75.03
2023-02-12T15:57:52.314Z,74.63
2023-02-12T15:59:29.101Z,74.96
2023-02-12T16:01:03.792Z,75.77
2023-02-12T16:02:35.750Z,76.05
2023-02-12T16:04:08.555Z,76.33
2023-02-12T16:05:40.432Z,75.72
2023-02-12T16:07:13.553Z,75.76
2023-02-12T16:09:01.944Z,75.95
2023-02-12T16:10:34.491Z,75.94
2023-02-12T16:12:13.759Z,76.26
2023-02-12T16:14:01.056Z,75.81
2023-02-12T16:15:34.978Z,76.42
2023-02-12T16:17:20.187Z,76.56
2023-02-12T16:19:43.392Z,76.37
2023-02-12T16:21:23.466Z,76.19
2023-02-12T16:22:56.434Z,76.10
2023-02-12T16:24:40.818Z,76.36
2023-02-12T16:26:26.348Z,76.63
2023-02-12T16:28:04.626Z,76.82
2023-02-12T16:29:43.766Z,76.48
2023-02-12T16:31:17.389Z,76.91
2023-02-12T16:32:50.250Z,77.22
2023-02-12T16:34:33.850Z,77.41
2023-02-12T16:36:22.782Z,76.52
2023-02-12T16:38:35.108Z,77.66
2023-02-12T16:40:12.992Z,78.47
2023-02-12T16:41:55.277Z,78.54
2023-02-12T16:43:27.075Z,78.70
2023-02-12T16:44:58.796Z,78.86
2023-02-12T16:46:33.878Z,78.93
2023-02-12T16:48:10.652Z,78.92
2023-02-12T16:49:54.323Z,78.47
2023-02-12T16:51:27.591Z,78.30
2023-02-12T16:53:01.580Z,78.55
2023-02-12T16:54:35.533Z,78.73
2023-02-12T16:56:13.020Z,78.91
2023-02-12T16:57:45.238Z,79.48
2023-02-12T16:59:16.996Z,79.75
2023-02-12T17:00:49.653Z,79.97
2023-02-12T17:02:21.553Z,79.61
2023-02-12T17:03:54.457Z,79.64
2023-02-12T17:05:26.217Z,79.90
2023-02-12T17:06:58.401Z,79.91
2023-02-12T17:08:30.208Z,80.12
2023-02-12T17:10:02.313Z,80.53
2023-02-12T17:11:34.219Z,80.88
2023-02-12T17:13:06.091Z,81.13
2023-02-12T17:14:37.846Z,81.21
2023-02-12T17:16:11.247Z,81.41
2023-02-12T17:17:44.426Z,81.58
2023-02-12T17:19:16.455Z,81.67
2023-02-12T17:20:54.341Z,81.43
2023-02-12T17:22:27.378Z,81.80
2023-02-12T17:23:59.186Z,81.64
2023-02-12T17:25:31.850Z,81.49
2023-02-12T17:27:03.575Z,81.57
2023-02-12T17:28:35.635Z,81.99
2023-02-12T17:30:09.272Z,82.18
2023-02-12T17:31:41.273Z,82.29
2023-02-12T17:33:13.212Z,82.21
2023-02-12T17:34:48.622Z,82.14
2023-02-12T17:36:20.902Z,82.64
2023-02-12T17:37:52.857Z,81.73
2023-02-12T17:39:24.742Z,82.08
2023-02-12T17:40:57.055Z,82.41
2023-02-12T17:42:29.331Z,81.85
2023-02-12T17:44:01.241Z,82.25
2023-02-12T17:45:33.100Z,82.28
2023-02-12T17:47:05.045Z,82.65
2023-02-12T17:48:37.106Z,83.66
2023-02-12T17:50:11.700Z,83.44
2023-02-12T17:51:43.443Z,83.61
2023-02-12T17:53:15.184Z,83.25
2023-02-12T17:54:47.840Z,83.76
2023-02-12T17:56:23.065Z,84.14
2023-02-12T17:57:56.214Z,84.51
2023-02-12T17:59:27.908Z,84.68
2023-02-12T18:01:05.176Z,85.14
2023-02-12T18:02:37.782Z,84.85
2023-02-12T18:04:09.506Z,84.78
2023-02-12T18:05:43.117Z,84.73
2023-02-12T18:07:15.466Z,84.88
2023-02-12T18:08:47.761Z,85.40
2023-02-12T18:10:19.923Z,85.01
2023-02-12T18:11:51.707Z,85.06
2023-02-12T18:13:23.814Z,85.15
2023-02-12T18:14:59.726Z,85.78
2023-02-12T18:16:36.168Z,85.10
2023-02-12T18:18:08.545Z,85.21
2023-02-12T18:19:40.862Z,85.04
2023-02-12T18:21:15.522Z,85.76
2023-02-12T18:22:47.535Z,84.91
2023-02-12T18:24:19.337Z,84.62
2023-02-12T18:25:51.451Z,85.06
2023-02-12T18:27:24.127Z,85.20
2023-02-12T18:28:58.639Z,86.00
2023-02-12T18:30:30.890Z,86.52
2023-02-12T18:32:03.728Z,86.19
2023-02-12T18:33:39.348Z,86.38
2023-02-12T18:35:11.454Z,86.88
2023-02-12T18:36:43.314Z,86.97
2023-02-12T18:38:15.307Z,86.84
2023-02-12T18:39:47.567Z,86.96
2023-02-12T18:41:25.924Z,86.99
2023-02-12T18:42:58.017Z,86.98
2023-02-12T18:44:30.220Z,86.98
2023-02-12T18:46:07.212Z,87.06
2023-02-12T18:47:39.727Z,87.38
2023-02-12T18:49:12.624Z,87.61
2023-02-12T18:50:44.730Z,87.73
2023-02-12T18:52:16.698Z,87.95
2023-02-12T18:53:54.265Z,87.67
2023-02-12T18:55:26.120Z,87.88
2023-02-12T18:56:58.028Z,87.63
2023-02-12T18:58:29.886Z,87.93
2023-02-12T19:00:02.812Z,87.75
2023-02-12T19:01:35.952Z,87.67
2023-02-12T19:03:07.857Z,87.99
2023-02-12T19:04:40.104Z,88.17
2023-02-12T19:06:12.213Z,88.43
2023-02-12T19:07:44.117Z,88.43
2023-02-12T19:09:18.829Z,87.95
2023-02-12T19:10:50.890Z,88.30
2023-02-12T19:12:22.735Z,88.45
2023-02-12T19:13:55.539Z,88.61
2023-02-12T19:15:27.429Z,88.49
2023-02-12T19:16:59.106Z,88.71
2023-02-12T19:18:31.007Z,88.81
2023-02-12T19:20:02.991Z,89.04
2023-02-12T19:21:35.169Z,88.77
2023-02-12T19:23:07.303Z,88.99
2023-02-12T19:24:46.524Z,88.76
2023-02-12T19:26:18.647Z,88.81
2023-02-12T19:27:50.356Z,89.46
2023-02-12T19:29:22.489Z,89.19
2023-02-12T19:30:54.667Z,89.18
2023-02-12T19:32:26.789Z,89.23
2023-02-12T19:34:04.005Z,89.12
2023-02-12T19:35:35.748Z,89.49
2023-02-12T19:37:10.913Z,89.31
2023-02-12T19:38:44.162Z,89.44
2023-02-12T19:40:16.359Z,89.08
2023-02-12T19:41:50.009Z,89.42
2023-02-12T19:43:22.062Z,89.39
2023-02-12T19:44:54.218Z,89.34
2023-02-12T19:46:29.640Z,89.49
2023-02-12T19:48:02.256Z,89.53
2023-02-12T19:49:35.192Z,89.82
2023-02-12T19:51:10.782Z,89.63
2023-02-12T19:52:43.242Z,89.45
2023-02-12T19:54:17.435Z,89.54
2023-02-12T19:55:49.749Z,89.83
2023-02-12T19:57:22.441Z,90.13
2023-02-12T19:58:57.937Z,89.92
2023-02-12T20:00:30.138Z,89.97
2023-02-12T20:02:03.784Z,89.85
2023-02-12T20:03:35.688Z,89.84
2023-02-12T20:05:07.798Z,90.22
2023-02-12T20:06:41.143Z,90.11
2023-02-12T20:08:13.801Z,90.16
2023-02-12T20:09:45.886Z,89.80
2023-02-12T20:11:24.288Z,89.71
2023-02-12T20:12:56.118Z,89.94
2023-02-12T20:14:28.284Z,89.92
2023-02-12T20:16:05.517Z,90.57
2023-02-12T20:17:37.826Z,90.68
2023-02-12T20:19:14.741Z,90.39
2023-02-12T20:20:46.814Z,90.60
2023-02-12T20:22:19.389Z,90.65
2023-02-12T20:23:51.508Z,90.55
2023-02-12T20:25:23.737Z,90.60
2023-02-12T20:26:56.661Z,90.65
2023-02-12T20:28:28.990Z,90.05
2023-02-12T20:30:01.203Z,90.82
2023-02-12T20:31:36.093Z,90.70
2023-02-12T20:33:08.343Z,90.97
2023-02-12T20:34:50.476Z,90.61
2023-02-12T20:36:24.448Z,90.66
2023-02-12T20:37:56.185Z,90.33
2023-02-12T20:39:28.326Z,90.55
2023-02-12T20:41:01.984Z,90.29
2023-02-12T20:42:33.884Z,90.61
2023-02-12T20:44:07.444Z,90.77
2023-02-12T20:45:39.207Z,90.98
2023-02-12T20:47:10.961Z,90.82
2023-02-12T20:48:43.300Z,90.94
2023-02-12T20:50:15.429Z,90.95
2023-02-12T20:51:49.739Z,90.12
2023-02-12T20:53:21.538Z,89.82
2023-02-12T20:54:53.216Z,89.80